Jacksonville Naval Air Station
KNIP : now visible

Airfield :











YOU CAN JOIN US ON...

 
LOGIN :

Register | Disclaimer

   EN    FR    IT 

 









Legend :    VFR   Marginal VFR   IFR   Intensive IFR   Very Intensive IFR
Visi :
Ceiling :
>= 8 km
>= 3000ft
5 to 8 km
1000 to 3000 ft
1500m to 5 km
500 to 1000 ft
800 to 1500m
200 to 500 ft
< 800m
< 200 ft
Symbols :   Thunderstorms  Fog  Heavy snow  Heavy precipitations  Wind > 20 kt






- Airport Elevation : 21 ft


KNIP - Jacksonville Naval Air Station

CURRENT METAR :
  • 100653Z 25010KT 9SM SCT180 BKN250 24/20 A2975 RMK AO2 SLP069 T02440200

EXPIRED METARs :
  • 100553Z 24012KT 10SM SCT180 BKN250 24/19 A2976 RMK AO2 SLP072 T02440194 10317 20244 58005
  • 100453Z 25011KT 10SM FEW060 SCT180 BKN250 25/20 A2978 RMK AO2 SLP078 T02500200 403500228

TAF TAF KNIP
Valid from the 09 at 23:00 until the 10 at 23:00 UTC


0923/1023 27013KT 9999 VCTS SCT030CB BKN250 QNH2968INS
FM100300 27011KT 9999 SCT030 SCT180 BKN250 QNH2974INS
FM100700 33016KT 9999 SCT020 BKN040 BKN180 BKN250 QNH2974INS
TEMPO 1009/1015 34018KT 6000 RA BR SCT015 BKN030 BKN150 BKN250
FM101500 33014KT 8000 -RA BR SCT015 BKN030 OVC060 QNH2988INS
FM102000 35010KT 9999 FEW050 BKN200 QNH2988INS T17/1013Z T21/1020Z FN20061



MET'MAP, your aeronautical weather chart ! - Copyright ORBIFLY December 2007 - Disclaimer

ORBIFLY MET'MAP TEAM :

Programming & Development : Alexandra Zaïnal
Concept & original design : Baudouin d'Aumeries
Assistance for programming : Marc-Olivier Méhu
Technical & hardware support : Manuel Goepfert

Contact : metmap@orbifly.com




SOURCES & CREDITS :

   NOAA       Earth
Advisory